AirNav   Everest Fuels
 
 384 users online  

MI61 Henry Ford Wyandotte Hospital Heliport
Wyandotte, Michigan, USA

GOING TO WYANDOTTE?


FAA INFORMATION EFFECTIVE 10 OCTOBER 2019

Location

FAA Identifier: MI61
Lat/Long: 42-12-33.8700N 083-08-38.7200W
42-12.564500N 083-08.645333W
42.2094083,-83.1440889
(estimated)
Elevation: 578 ft. / 176 m (estimated)
Variation: 06W (1985)
From city: LCTD IN TOWN.
Time zone: UTC -4 (UTC -5 during Standard Time)
Zip code: 48192

Heliport Operations

Heliport use: Private use, MEDICAL USE.
Activation date: 10/1970
Control tower: no
ARTCC: CLEVELAND CENTER
FSS: LANSING FLIGHT SERVICE STATION
Attendance: IREG
Wind indicator: lighted
Segmented circle: no

Heliport Communications

WX AWOS-3 at ONZ (7 nm S): 119.675 (734-692-9686)
WX ASOS at DTW (9 nm W): PHONE 734-955-5015
WX ASOS at DET (13 nm NE): PHONE 313-371-9696
WX ASOS at YIP (17 nm W): PHONE 734-961-6843

Nearby radio navigation aids

VOR radial/distance  VOR name  Freq  Var
DXOr097/9.9DETROIT VOR/DME113.4006W
YQGr266/14.2WINDSOR VOR/DME113.8006W
CRLr058/17.0CARLETON VOR/DME115.7003W
SVMr124/23.3SALEM VORTAC114.3003W

 
NDB name  Hdg/Dist  Freq  Var  ID
GROSSE ILE010/6.541907WRYS .-. -.-- ...
TECUMSEH078/34.723906WTCU - -.-. ..-

Heliport Services

Airframe service: NONE
Powerplant service: NONE

Runway Information

Helipad H1

Dimensions: 40 x 40 ft. / 12 x 12 m
Surface: concrete
Latitude: 42-12.564500N
Longitude: 083-08.645333W
Elevation: 578.0 ft.
Traffic pattern: leftleft

Heliport Ownership and Management from official FAA records

Ownership: Privately-owned
Owner: HENRY FORD HEALTH SYSTEM
WYANDOTTE HOSPITAL
WYANDOTTE, MI 48192
Phone (734) 246-6008
Manager: TOM MAHONY
2333 BIDDLE
WYANDOTTE, MI 48192
Phone (734) 246-6008
EXT2604

Additional Remarks

APCHS & DEPS TO THE N.
+64 FT UNLGTD MAST POLE 500 NNE OF HELI.
FOR CD CTC DETROIT APCH AT 800-499-8181.

Instrument Procedures

There are no published instrument procedures at MI61.

Some nearby airports with instrument procedures:

KONZ - Grosse Ile Municipal Airport (7 nm S)
KDTW - Detroit Metropolitan Wayne County Airport (9 nm W)
KDET - Coleman A Young Municipal Airport (13 nm NE)
1D2 - Canton-Plymouth-Mettetal Airport (16 nm NW)
KYIP - Willow Run Airport (17 nm W)
 
Loc | Ops | Rwys | IFR | FBO | Links
Com | Nav | Svcs | Stats | Notes
Area around MI61 (Henry Ford Wyandotte Hospital Heliport)
 
Road maps at: MapQuest Bing Google
 
Aerial photo
No photo
 
Sectional chart

 
Airport distance calculator
Flying to Henry Ford Wyandotte Hospital Heliport? Find the distance to fly.

From to MI61

Sunrise and sunset
Times for 21-Oct-2019
 Local
(UTC-4)
 Zulu
(UTC)
Morning civil twilight07:2511:25
Sunrise07:5311:53
Sunset18:4122:41
Evening civil twilight19:1023:10

Current date and time
Zulu (UTC)  21-Oct-2019 08:44:49
Local (UTC-4)  21-Oct-2019 04:44:49
 
METAR
KONZ 
7nm S 
210835Z AUTO 06004KT 10SM OVC070 10/08 A2994 RMK AO2 T01000084
KDTW 
9nm W 
210753Z 05003KT 9SM BKN070 10/07 A2996 RMK AO2 SLP144 T01000067 $
CYQG 
9nm NE 
210800Z AUTO 05005KT 9SM SCT070 09/07 A2997 RMK SLP151
KDET 
13nm NE 
210753Z 02004KT 6SM BR FEW065 09/08 A2997 RMK AO2 SLP149 T00890078 $
CXHA 
15nm SE 
210800Z AUTO 05003KT 08/07 RMK AO1 SLP144 T00800068 58005
KYIP 
17nm W 
210753Z 05006KT 9SM OVC065 09/07 A2996 RMK AO2 SLP142 T00940067 $
TAF
KDTW 
9nm W 
210520Z 2106/2212 06004KT P6SM SCT060 SCT250 TEMPO 2109/2111 5SM BR SCT250 FM211100 09007KT P6SM BKN060 BKN200 FM211600 11012G20KT P6SM SCT025 BKN045 OVC090 FM212000 12014G26KT 4SM -SHRA BKN020 OVC040 FM220100 20012G22KT 4SM -SHRA BKN015 OVC030 FM220600 22015G26KT P6SM BKN028
CYQG 
9nm NE 
210541Z 2106/2206 03006KT 6SM BR SKC TEMPO 2106/2113 11/2SM BR PROB30 2107/2113 1/4SM FG FM211400 13010G20KT P6SM SCT040 BKN240 BECMG 2115/2117 13017G27KT FM212000 14018G28KT P6SM -SHRA OVC040 BECMG 2123/2201 18018G28KT FM220300 18018G28KT 6SM -SHRA BR OVC015 BECMG 2203/2205 22015G25KT FM220500 22015G25KT P6SM -RA OVC020 RMK FCST BASED ON AUTO OBS. NXT FCST BY 211200Z
KDET 
13nm NE 
210520Z 2106/2206 06004KT P6SM SCT060 SCT250 TEMPO 2109/2111 5SM BR SCT250 FM211100 09007KT P6SM BKN060 BKN200 FM211600 11012G20KT P6SM SCT025 BKN045 OVC090 FM212000 12014G26KT 4SM -SHRA BKN020 OVC040 FM220100 20012G22KT 4SM -SHRA BKN015 OVC030
KYIP 
17nm W 
210520Z 2106/2206 06004KT P6SM SCT060 SCT250 TEMPO 2109/2111 5SM BR SCT250 FM211100 09007KT P6SM BKN060 BKN200 FM211600 11012G20KT P6SM SCT025 BKN045 OVC090 FM212000 12014G26KT 4SM -SHRA BKN020 OVC040 FM220100 20012G22KT 4SM -SHRA BKN015 OVC030
NOTAMs
Click for the latest NOTAMs
NOTAMs are issued by the DoD/FAA and will open in a separate window not controlled by AirNav.

 

 
 

Would you like to see your business listed on this page?

 If your business provides an interesting product or service to pilots, flight crews, aircraft, or users of the Henry Ford Wyandotte Hospital Heliport, you should consider listing it here.  To start the listing process, click on the button below
 
Add a business
 

Other Pages about Henry Ford Wyandotte Hospital Heliport

Update a link
 
Copyright © AirNav, LLC. All rights reserved. Privacy Policy  Contact